AKST,Max TemperatureF,Mean TemperatureF,Min TemperatureF,Max Dew PointF,MeanDew PointF,Min DewpointF,Max Humidity, Mean Humidity, Min Humidity, Max Sea Level PressureIn, Mean Sea Level PressureIn, Min Sea Level PressureIn, Max VisibilityMiles, Mean VisibilityMiles, Min VisibilityMiles, Max Wind SpeedMPH, Mean Wind SpeedMPH, Max Gust SpeedMPH,PrecipitationIn, CloudCover, Events, WindDirDegrees
2011-12-1,2,-6,-14,-8,-13,-17,0,0,0,29.70,29.65,29.60,10,10,10,15,3,16,0.00,2,,352
2011-12-2,3,-5,-13,-6,-12,-17,0,0,0,30.18,29.98,29.65,10,10,10,14,4,15,0.00,3,,9
2011-12-3,31,16,1,30,16,-6,0,0,0,30.09,29.43,29.06,10,3,0,37,24,47,0.45,7,Snow,74
2011-12-4,31,22,13,30,22,10,0,0,0,29.78,29.03,28.78,10,3,0,43,29,48,0.04,8,Fog-Rain-Snow,182
2011-12-5,13,4,-6,8,-1,-9,0,0,0,30.36,30.07,29.79,8,5,2,29,10,35,T,7,Snow,300
2011-12-6,20,9,-3,18,7,-8,0,0,0,30.38,30.09,29.82,10,4,0,31,18,39,0.24,5,Snow,72
2011-12-7,33,27,20,33,25,19,0,0,0,29.80,29.44,29.26,10,1,0,36,23,45,0.57,8,Rain-Snow,93
2011-12-8,33,32,30,34,31,30,0,0,0,29.28,29.24,29.21,10,3,1,22,15,28,0.17,8,Rain-Snow,139
2011-12-9,30,23,15,30,20,14,0,0,0,29.81,29.61,29.27,10,5,0,26,14,35,0.02,8,Fog-Snow,243
2011-12-10,31,27,22,31,26,21,0,0,0,29.66,29.14,28.76,7,2,0,45,32,53,0.37,8,Fog-Snow,100
2011-12-11,30,28,25,29,27,25,0,0,0,29.15,29.08,28.95,10,7,2,23,15,30,0.01,8,Snow,120
2011-12-12,27,19,11,27,19,9,0,0,0,29.65,29.41,29.10,10,5,0,13,4,16,0.04,7,Fog-Snow,98
2011-12-13,25,18,10,23,19,10,0,0,0,29.78,29.71,29.66,10,7,2,18,4,22,0.05,7,Snow,62
2011-12-14,19,6,-8,9,1,-9,0,0,0,29.85,29.80,29.69,10,9,2,13,4,14,0.00,4,,6
2011-12-15,18,12,5,8,4,1,0,0,0,29.68,29.41,29.27,10,9,5,36,20,43,0.00,1,Snow,18
2011-12-16,25,19,12,20,13,3,0,0,0,29.27,29.19,29.14,10,4,0,26,18,32,0.05,8,Fog-Snow,31
2011-12-17,27,26,24,27,24,19,0,0,0,29.16,29.10,28.99,10,4,0,23,16,30,0.06,8,Fog-Rain-Snow,81
2011-12-18,33,29,25,26,24,21,0,0,0,28.98,28.80,28.66,10,8,1,24,18,29,0.02,8,Snow,46
2011-12-19,29,25,20,29,26,19,0,0,0,29.30,28.99,28.79,10,5,0,21,13,28,0.07,8,Fog-Rain-Snow,115
2011-12-20,27,20,12,25,19,11,0,0,0,29.42,29.37,29.32,10,9,1,21,14,26,T,6,Snow,80
2011-12-21,24,15,5,14,10,-1,0,0,0,29.69,29.53,29.36,10,10,10,23,10,28,0.00,5,,355
2011-12-22,9,-2,-13,1,-8,-16,0,0,0,29.72,29.68,29.63,10,10,2,22,5,24,0.00,3,,357
2011-12-23,4,-5,-13,-6,-12,-19,0,0,0,29.85,29.74,29.63,10,10,9,29,12,35,0.00,2,,347
2011-12-24,-12,-19,-25,-19,-24,-29,0,0,0,29.92,29.88,29.85,10,10,10,12,3,14,0.00,1,,346
2011-12-25,0,-11,-22,-12,-18,-25,0,0,0,29.85,29.76,29.72,10,10,10,14,3,15,0.00,2,,333
2011-12-26,-4,-13,-21,-12,-18,-23,0,0,0,29.75,29.66,29.55,10,10,9,14,3,17,T,3,Snow,5
2011-12-27,-5,-15,-24,-12,-21,-28,0,0,0,29.54,29.49,29.47,10,10,9,12,2,14,T,3,Snow,352
2011-12-28,-9,-20,-30,-17,-28,-32,0,0,0,29.47,29.44,29.41,10,10,10,7,2,8,0.00,2,,356
2011-12-29,-19,-26,-32,-25,-31,-36,0,0,0,29.67,29.57,29.46,10,9,2,8,2,8,T,4,Snow,14
2011-12-30,-14,-23,-31,-18,-25,-35,0,0,0,29.84,29.72,29.66,10,7,2,7,1,8,0.01,7,Snow,11
2011-12-31,-23,-28,-32,-29,-33,-37,0,0,0,30.04,29.97,29.85,10,10,7,5,1,6,T,5,Snow,22